createdAt,value
2017-09-22T00:01:04.037Z,1000.48
2017-09-22T00:02:14.428Z,1000.5
2017-09-22T00:03:24.775Z,1000.46
2017-09-22T00:04:34.800Z,1000.48
2017-09-22T00:05:44.803Z,1000.51
2017-09-22T00:06:54.820Z,1000.54
2017-09-22T00:08:05.157Z,1000.48
2017-09-22T00:09:15.178Z,1000.57
2017-09-22T00:10:25.219Z,1000.52
2017-09-22T00:11:35.237Z,1000.53
2017-09-22T00:12:45.249Z,1000.55
2017-09-22T00:13:55.594Z,1000.62
2017-09-22T00:15:05.934Z,1000.59
2017-09-22T00:16:16.290Z,1000.66
2017-09-22T00:17:26.623Z,1000.61
2017-09-22T00:18:36.982Z,1000.59
2017-09-22T00:19:47.010Z,1000.62
2017-09-22T00:20:57.372Z,1000.6
2017-09-22T00:22:07.445Z,1000.63
2017-09-22T00:23:17.800Z,1000.6
2017-09-22T00:24:28.138Z,1000.62
2017-09-22T00:25:38.482Z,1000.57
2017-09-22T00:26:48.499Z,1000.59
2017-09-22T00:27:58.840Z,1000.54
2017-09-22T00:29:08.863Z,1000.53
2017-09-22T00:30:19.089Z,1000.51
2017-09-22T00:31:29.442Z,1000.53
2017-09-22T00:32:41.577Z,1000.5
2017-09-22T00:33:51.599Z,1000.5
2017-09-22T00:35:01.943Z,1000.49
2017-09-22T00:36:11.652Z,1000.48
2017-09-22T00:37:21.997Z,1000.53
2017-09-22T00:38:32.346Z,1000.54
2017-09-22T00:39:42.699Z,1000.49
2017-09-22T00:40:53.026Z,1000.45
2017-09-22T00:42:03.366Z,1000.49
2017-09-22T00:43:13.714Z,1000.46
2017-09-22T00:44:23.728Z,1000.51
2017-09-22T00:45:33.429Z,1000.49
2017-09-22T00:46:43.760Z,1000.51
2017-09-22T00:47:54.111Z,1000.51
2017-09-22T00:49:03.835Z,1000.49
2017-09-22T00:50:14.166Z,1000.44
2017-09-22T00:51:24.515Z,1000.44
2017-09-22T00:52:34.872Z,1000.36
2017-09-22T00:53:45.216Z,1000.4
2017-09-22T00:54:55.608Z,1000.4
2017-09-22T00:56:05.948Z,1000.4
2017-09-22T00:57:16.282Z,1000.39
2017-09-22T00:58:26.302Z,1000.4
2017-09-22T00:59:36.636Z,1000.38
2017-09-22T01:00:47.025Z,1000.4
2017-09-22T01:01:57.372Z,1000.43
2017-09-22T01:03:07.405Z,1000.39
2017-09-22T01:04:17.750Z,1000.44
2017-09-22T01:05:28.087Z,1000.35
2017-09-22T01:06:38.414Z,1000.39
2017-09-22T01:07:48.441Z,1000.37
2017-09-22T01:08:58.154Z,1000.36
2017-09-22T01:10:07.871Z,1000.32
2017-09-22T01:11:17.897Z,1000.38
2017-09-22T01:12:27.927Z,1000.39
2017-09-22T01:13:37.950Z,1000.36
2017-09-22T01:14:47.330Z,1000.42
2017-09-22T01:15:57.355Z,1000.39
2017-09-22T01:17:07.371Z,1000.37
2017-09-22T01:18:17.382Z,1000.39
2017-09-22T01:19:27.721Z,1000.35
2017-09-22T01:20:38.045Z,1000.4
2017-09-22T01:21:48.593Z,1000.44
2017-09-22T01:23:00.774Z,1000.4
2017-09-22T01:24:11.151Z,1000.44
2017-09-22T01:25:20.856Z,1000.44
2017-09-22T01:26:31.243Z,1000.38
2017-09-22T01:27:41.570Z,1000.44
2017-09-22T01:28:51.586Z,1000.41
2017-09-22T01:30:01.998Z,1000.4
2017-09-22T01:31:12.334Z,1000.38
2017-09-22T01:32:22.696Z,1000.4
2017-09-22T01:33:33.024Z,1000.39
2017-09-22T01:34:43.060Z,1000.41
2017-09-22T01:35:53.401Z,1000.47
2017-09-22T01:37:03.759Z,1000.46
2017-09-22T01:38:14.096Z,1000.47
2017-09-22T01:39:24.123Z,1000.49
2017-09-22T01:40:34.158Z,1000.52
2017-09-22T01:41:44.543Z,1000.5
2017-09-22T01:42:54.888Z,1000.49
2017-09-22T01:44:04.919Z,1000.48
2017-09-22T01:45:14.981Z,1000.5
2017-09-22T01:46:25.325Z,1000.48
2017-09-22T01:47:35.671Z,1000.42
2017-09-22T01:48:46.045Z,1000.42
2017-09-22T01:49:56.388Z,1000.46
2017-09-22T01:51:06.741Z,1000.46
2017-09-22T01:52:17.064Z,1000.4
2017-09-22T01:53:27.429Z,1000.42
2017-09-22T01:54:37.450Z,1000.47
2017-09-22T01:55:47.788Z,1000.48
2017-09-22T01:56:58.126Z,1000.48
2017-09-22T01:58:08.477Z,1000.54
2017-09-22T01:59:18.498Z,1000.54
2017-09-22T02:00:28.505Z,1000.53
2017-09-22T02:01:38.204Z,1000.52
2017-09-22T02:02:48.534Z,1000.53
2017-09-22T02:03:58.560Z,1000.56
2017-09-22T02:05:08.907Z,1000.58
2017-09-22T02:06:19.276Z,1000.61
2017-09-22T02:07:29.272Z,1000.59
2017-09-22T02:08:39.611Z,1000.63
2017-09-22T02:09:49.966Z,1000.64
2017-09-22T02:11:00.311Z,1000.6
2017-09-22T02:12:10.334Z,1000.6
2017-09-22T02:13:20.666Z,1000.59
2017-09-22T02:14:31.026Z,1000.65
2017-09-22T02:15:41.357Z,1000.66
2017-09-22T02:16:51.703Z,1000.71
2017-09-22T02:18:02.048Z,1000.65
2017-09-22T02:19:12.393Z,1000.68
2017-09-22T02:20:22.414Z,1000.67
2017-09-22T02:21:32.422Z,1000.65
2017-09-22T02:22:42.120Z,1000.63
2017-09-22T02:23:52.475Z,1000.66
2017-09-22T02:25:02.494Z,1000.62
2017-09-22T02:26:13.206Z,1000.67
2017-09-22T02:27:24.431Z,1000.62
2017-09-22T02:28:34.768Z,1000.63
2017-09-22T02:29:45.099Z,1000.61
2017-09-22T02:30:55.131Z,1000.65
2017-09-22T02:32:05.154Z,1000.61
2017-09-22T02:33:15.488Z,1000.61
2017-09-22T02:34:25.904Z,1000.59
2017-09-22T02:35:36.252Z,1000.65
2017-09-22T02:36:46.589Z,1000.59
2017-09-22T02:37:56.628Z,1000.66
2017-09-22T02:39:06.968Z,1000.62
2017-09-22T02:40:17.365Z,1000.62
2017-09-22T02:41:27.387Z,1000.63
2017-09-22T02:42:37.720Z,1000.68
2017-09-22T02:43:48.053Z,1000.69
2017-09-22T02:44:58.077Z,1000.68
2017-09-22T02:46:08.098Z,1000.67
2017-09-22T02:47:18.434Z,1000.64
2017-09-22T02:48:28.766Z,1000.65
2017-09-22T02:49:39.114Z,1000.67
2017-09-22T02:50:49.451Z,1000.67
2017-09-22T02:51:59.537Z,1000.7
2017-09-22T02:53:09.875Z,1000.69
2017-09-22T02:54:20.231Z,1000.7
2017-09-22T02:55:30.588Z,1000.74
2017-09-22T02:56:40.942Z,1000.73
2017-09-22T02:57:51.329Z,1000.74
2017-09-22T02:59:01.673Z,1000.72
2017-09-22T03:00:12.013Z,1000.71
2017-09-22T03:01:22.021Z,1000.74
2017-09-22T03:33:29.584Z,1000.79
2017-09-22T03:34:39.621Z,1000.79
2017-09-22T03:35:49.945Z,1000.81
2017-09-22T03:37:00.267Z,1000.8
2017-09-22T03:38:10.267Z,1000.84
2017-09-22T03:39:20.598Z,1000.78
2017-09-22T03:40:30.336Z,1000.76
2017-09-22T03:41:40.665Z,1000.75
2017-09-22T03:42:50.673Z,1000.78
2017-09-22T03:44:01.009Z,1000.81
2017-09-22T03:45:11.030Z,1000.77
2017-09-22T03:46:21.055Z,1000.74
2017-09-22T03:47:31.076Z,1000.76
2017-09-22T03:48:41.415Z,1000.77
2017-09-22T03:49:51.440Z,1000.75
2017-09-22T03:51:01.233Z,1000.75
2017-09-22T03:52:11.563Z,1000.78
2017-09-22T03:53:21.281Z,1000.74
2017-09-22T03:54:31.607Z,1000.76
2017-09-22T03:55:41.936Z,1000.78
2017-09-22T03:56:51.955Z,1000.78
2017-09-22T03:58:02.329Z,1000.82
2017-09-22T03:59:12.665Z,1000.81
2017-09-22T04:00:23.003Z,1000.85
2017-09-22T04:01:32.395Z,1000.84
2017-09-22T04:02:42.739Z,1000.81
2017-09-22T04:03:53.083Z,1000.88
2017-09-22T04:05:03.115Z,1000.85
2017-09-22T04:06:13.142Z,1000.89
2017-09-22T04:07:23.174Z,1000.83
2017-09-22T04:08:33.593Z,1000.82
2017-09-22T04:09:43.927Z,1000.84
2017-09-22T04:10:53.949Z,1000.85
2017-09-22T04:12:03.968Z,1000.81
2017-09-22T04:13:14.291Z,1000.8
2017-09-22T04:14:24.318Z,1000.8
2017-09-22T04:15:34.663Z,1000.81
2017-09-22T04:16:44.682Z,1000.8
2017-09-22T04:17:56.037Z,1000.84
2017-09-22T04:19:06.371Z,1000.82
2017-09-22T04:20:16.752Z,1000.86
2017-09-22T04:21:27.085Z,1000.81
2017-09-22T04:22:37.103Z,1000.88
2017-09-22T04:23:47.437Z,1000.94
2017-09-22T04:24:57.463Z,1000.9
2017-09-22T04:26:07.805Z,1000.92
2017-09-22T04:27:18.147Z,1000.97
2017-09-22T04:28:28.174Z,1000.96
2017-09-22T04:29:38.529Z,1000.99
2017-09-22T04:30:48.557Z,1000.97
2017-09-22T04:31:58.610Z,1000.97
2017-09-22T04:33:08.643Z,1001.02
2017-09-22T04:34:18.659Z,1001.05
2017-09-22T04:35:28.693Z,1001.01
2017-09-22T04:36:39.021Z,1001.05
2017-09-22T04:37:49.051Z,1001.03
2017-09-22T04:38:59.384Z,1001.03
2017-09-22T04:40:09.082Z,1001
2017-09-22T04:41:19.421Z,1001.08
2017-09-22T04:42:29.744Z,1001.06
2017-09-22T04:43:40.138Z,1001.09
2017-09-22T04:44:50.508Z,1001.07
2017-09-22T04:46:00.542Z,1001.08
2017-09-22T04:47:10.883Z,1001.05
2017-09-22T04:48:20.903Z,1001.07
2017-09-22T04:49:30.936Z,1001.07
2017-09-22T04:50:40.951Z,1001.04
2017-09-22T04:51:51.305Z,1001.06
2017-09-22T04:53:01.640Z,1001.04
2017-09-22T04:54:11.980Z,1001.05
2017-09-22T04:55:22.375Z,1001.06
2017-09-22T04:56:32.392Z,1001.02
2017-09-22T04:57:42.753Z,1001.07
2017-09-22T04:58:53.099Z,1001.06
2017-09-22T05:00:03.458Z,1001.08
2017-09-22T05:01:13.857Z,1001.15
2017-09-22T05:02:24.207Z,1001.09
2017-09-22T05:03:34.597Z,1001.13
2017-09-22T05:04:44.943Z,1001.13
2017-09-22T05:05:55.274Z,1001.11
2017-09-22T05:07:05.676Z,1001.13
2017-09-22T05:08:16.015Z,1001.09
2017-09-22T05:09:26.031Z,1001.12
2017-09-22T05:10:36.378Z,1001.08
2017-09-22T05:11:46.416Z,1001.15
2017-09-22T05:12:56.490Z,1001.14
2017-09-22T05:14:06.528Z,1001.14
2017-09-22T05:15:16.869Z,1001.16
2017-09-22T05:16:26.911Z,1001.11
2017-09-22T05:17:37.280Z,1001.11
2017-09-22T05:18:47.300Z,1001.12
2017-09-22T05:19:57.363Z,1001.13
2017-09-22T05:21:07.392Z,1001.23
2017-09-22T05:22:17.432Z,1001.2
2017-09-22T05:23:27.782Z,1001.16
2017-09-22T05:24:38.143Z,1001.19
2017-09-22T05:25:48.496Z,1001.21
2017-09-22T05:26:58.531Z,1001.22
2017-09-22T05:28:08.862Z,1001.24
2017-09-22T05:29:19.205Z,1001.22
2017-09-22T05:30:29.539Z,1001.26
2017-09-22T05:31:39.271Z,1001.26
2017-09-22T05:32:49.610Z,1001.28
2017-09-22T05:33:59.945Z,1001.28
2017-09-22T05:35:10.299Z,1001.32
2017-09-22T05:36:20.634Z,1001.28
2017-09-22T05:37:30.643Z,1001.31
2017-09-22T05:38:40.981Z,1001.28
2017-09-22T05:39:50.996Z,1001.35
2017-09-22T05:41:01.566Z,1001.3
2017-09-22T05:42:11.585Z,1001.31
2017-09-22T05:43:21.319Z,1001.31
2017-09-22T05:44:31.708Z,1001.31
2017-09-22T05:45:42.116Z,1001.28
2017-09-22T05:46:52.447Z,1001.3
2017-09-22T05:48:02.788Z,1001.29
2017-09-22T05:49:12.810Z,1001.25
2017-09-22T05:50:22.838Z,1001.29
2017-09-22T05:51:33.169Z,1001.3
2017-09-22T05:52:42.873Z,1001.35
2017-09-22T05:53:52.889Z,1001.33
2017-09-22T05:55:02.919Z,1001.36
2017-09-22T05:56:12.941Z,1001.33
2017-09-22T05:57:23.293Z,1001.4
2017-09-22T05:58:33.321Z,1001.42
2017-09-22T05:59:43.346Z,1001.44
2017-09-22T06:00:53.689Z,1001.45
2017-09-22T06:02:04.047Z,1001.43
2017-09-22T06:03:14.076Z,1001.47
2017-09-22T06:04:24.418Z,1001.44
2017-09-22T06:05:34.768Z,1001.45
2017-09-22T06:06:44.475Z,1001.47
2017-09-22T06:07:54.819Z,1001.52
2017-09-22T06:09:05.176Z,1001.47
2017-09-22T06:10:15.201Z,1001.45
2017-09-22T06:11:25.553Z,1001.45
2017-09-22T06:12:35.577Z,1001.42
2017-09-22T06:13:45.914Z,1001.45
2017-09-22T06:14:57.914Z,1001.52
2017-09-22T06:16:10.146Z,1001.47
2017-09-22T06:17:20.227Z,1001.51
2017-09-22T06:18:30.570Z,1001.56
2017-09-22T06:19:40.903Z,1001.54
2017-09-22T06:20:51.233Z,1001.58
2017-09-22T06:22:01.559Z,1001.63
2017-09-22T06:23:11.950Z,1001.62
2017-09-22T06:24:22.286Z,1001.66
2017-09-22T06:25:32.631Z,1001.63
2017-09-22T06:26:42.986Z,1001.66
2017-09-22T06:27:53.018Z,1001.68
2017-09-22T06:29:03.088Z,1001.66
2017-09-22T06:30:13.438Z,1001.72
2017-09-22T06:31:23.811Z,1001.68
2017-09-22T06:32:33.854Z,1001.68
2017-09-22T06:33:44.186Z,1001.7
2017-09-22T06:34:53.881Z,1001.71
2017-09-22T06:36:04.230Z,1001.73
2017-09-22T06:37:14.258Z,1001.73
2017-09-22T06:38:24.595Z,1001.67
2017-09-22T06:39:34.956Z,1001.76
2017-09-22T06:40:45.376Z,1001.71
2017-09-22T06:41:55.731Z,1001.74
2017-09-22T06:43:06.089Z,1001.72
2017-09-22T06:44:18.080Z,1001.78
2017-09-22T06:45:28.420Z,1001.76
2017-09-22T06:46:38.497Z,1001.79
2017-09-22T06:47:48.830Z,1001.81
2017-09-22T06:48:59.335Z,1001.85
2017-09-22T06:50:09.667Z,1001.84
2017-09-22T06:51:20.000Z,1001.85
2017-09-22T06:52:30.351Z,1001.86
2017-09-22T06:53:40.409Z,1001.88
2017-09-22T06:54:50.749Z,1001.86
2017-09-22T06:56:01.098Z,1001.92
2017-09-22T06:57:12.459Z,1001.93
2017-09-22T06:58:22.871Z,1001.98
2017-09-22T06:59:32.889Z,1001.94
2017-09-22T07:00:43.238Z,1001.98
2017-09-22T07:01:53.577Z,1001.98
2017-09-22T07:03:03.612Z,1002.02
2017-09-22T07:04:13.996Z,1001.99
2017-09-22T07:05:24.025Z,1002.02
2017-09-22T07:06:34.371Z,1002.01
2017-09-22T07:07:44.715Z,1002.04
2017-09-22T07:08:55.046Z,1002.11
2017-09-22T07:10:05.438Z,1002.07
2017-09-22T07:11:15.451Z,1002.07
2017-09-22T07:12:25.778Z,1002.06
2017-09-22T07:13:36.114Z,1002.11
2017-09-22T07:14:46.460Z,1002.14
2017-09-22T07:15:56.796Z,1002.16
2017-09-22T07:17:06.878Z,1002.14
2017-09-22T07:18:16.262Z,1002.17
2017-09-22T07:19:26.602Z,1002.21
2017-09-22T07:20:36.619Z,1002.25
2017-09-22T07:21:46.647Z,1002.21
2017-09-22T07:22:56.988Z,1002.24
2017-09-22T07:24:07.012Z,1002.28
2017-09-22T07:25:17.344Z,1002.24
2017-09-22T07:26:27.749Z,1002.25
2017-09-22T07:27:38.086Z,1002.29
2017-09-22T07:28:48.426Z,1002.28
2017-09-22T07:29:58.762Z,1002.28
2017-09-22T07:31:08.781Z,1002.3
2017-09-22T07:32:18.855Z,1002.28
2017-09-22T07:33:29.184Z,1002.34
2017-09-22T07:34:39.209Z,1002.36
2017-09-22T07:35:49.227Z,1002.31
2017-09-22T07:36:59.564Z,1002.29
2017-09-22T07:38:09.914Z,1002.31
2017-09-22T07:39:20.261Z,1002.36
2017-09-22T07:40:30.282Z,1002.37
2017-09-22T07:41:40.659Z,1002.29
2017-09-22T07:42:50.677Z,1002.34
2017-09-22T07:44:01.970Z,1002.35
2017-09-22T07:45:12.304Z,1002.38
2017-09-22T07:46:22.652Z,1002.39
2017-09-22T07:47:32.358Z,1002.4
2017-09-22T07:48:42.712Z,1002.51
2017-09-22T07:49:52.729Z,1002.39
2017-09-22T07:51:02.763Z,1002.36
2017-09-22T07:52:13.102Z,1002.41
2017-09-22T07:53:22.822Z,1002.43
2017-09-22T07:54:33.185Z,1002.49
2017-09-22T07:55:43.211Z,1002.46
2017-09-22T07:56:53.228Z,1002.45
2017-09-22T07:58:03.570Z,1002.46
2017-09-22T07:59:13.607Z,1002.45
2017-09-22T08:00:23.948Z,1002.4
2017-09-22T08:01:33.983Z,1002.41
2017-09-22T08:02:44.328Z,1002.39
2017-09-22T08:03:54.671Z,1002.37
2017-09-22T08:05:05.010Z,1002.43
2017-09-22T08:06:14.716Z,1002.37
2017-09-22T08:07:25.053Z,1002.41
2017-09-22T08:08:35.402Z,1002.4
2017-09-22T08:09:45.430Z,1002.41
2017-09-22T08:10:55.769Z,1002.37
2017-09-22T08:12:05.806Z,1002.36
2017-09-22T08:13:16.177Z,1002.34
2017-09-22T08:14:26.209Z,1002.4
2017-09-22T08:15:36.237Z,1002.41
2017-09-22T08:16:46.579Z,1002.43
2017-09-22T08:17:56.611Z,1002.42
2017-09-22T08:19:06.621Z,1002.43
2017-09-22T08:20:16.640Z,1002.39
2017-09-22T08:21:26.971Z,1002.42
2017-09-22T08:22:37.317Z,1002.39
2017-09-22T08:23:46.709Z,1002.38
2017-09-22T08:24:56.722Z,1002.44
2017-09-22T08:26:07.067Z,1002.39
2017-09-22T08:27:17.416Z,1002.4
2017-09-22T08:28:27.752Z,1002.41
2017-09-22T08:29:37.791Z,1002.45
2017-09-22T08:30:50.970Z,1002.5
2017-09-22T08:32:01.333Z,1002.45
2017-09-22T08:33:11.669Z,1002.47
2017-09-22T08:34:21.707Z,1002.39
2017-09-22T08:35:32.042Z,1002.41
2017-09-22T08:36:42.077Z,1002.39
2017-09-22T08:37:52.439Z,1002.38
2017-09-22T08:39:02.772Z,1002.45
2017-09-22T08:40:12.495Z,1002.42
2017-09-22T08:41:22.535Z,1002.47
2017-09-22T08:42:32.553Z,1002.39
2017-09-22T08:43:42.590Z,1002.37
2017-09-22T08:44:52.924Z,1002.41
2017-09-22T08:46:03.265Z,1002.42
2017-09-22T08:47:13.657Z,1002.46
2017-09-22T08:48:24.004Z,1002.41
2017-09-22T08:49:34.379Z,1002.45
2017-09-22T08:50:44.415Z,1002.44
2017-09-22T08:51:54.775Z,1002.42
2017-09-22T08:53:04.543Z,1002.45
2017-09-22T08:54:14.878Z,1002.35
2017-09-22T08:55:25.222Z,1002.43
2017-09-22T08:56:35.554Z,1002.4
2017-09-22T08:57:45.909Z,1002.35
2017-09-22T08:58:56.299Z,1002.31
2017-09-22T09:00:06.657Z,1002.3
2017-09-22T09:01:16.992Z,1002.34
2017-09-22T09:02:27.330Z,1002.37
2017-09-22T09:03:37.680Z,1002.32
2017-09-22T09:04:48.029Z,1002.31
2017-09-22T09:05:58.382Z,1002.32
2017-09-22T09:07:08.735Z,1002.31
2017-09-22T09:08:19.082Z,1002.37
2017-09-22T09:09:29.442Z,1002.35
2017-09-22T09:10:39.802Z,1002.35
2017-09-22T09:11:50.138Z,1002.34
2017-09-22T09:13:00.515Z,1002.37
2017-09-22T09:14:10.535Z,1002.34
2017-09-22T09:15:20.567Z,1002.31
2017-09-22T09:16:32.559Z,1002.34
2017-09-22T09:17:42.595Z,1002.37
2017-09-22T09:18:52.961Z,1002.36
2017-09-22T09:20:02.975Z,1002.33
2017-09-22T09:21:13.323Z,1002.31
2017-09-22T09:22:23.678Z,1002.34
2017-09-22T09:23:34.035Z,1002.34
2017-09-22T09:24:44.390Z,1002.34
2017-09-22T09:25:55.952Z,1002.39
2017-09-22T09:27:05.996Z,1002.41
2017-09-22T09:28:16.348Z,1002.45
2017-09-22T09:29:26.713Z,1002.42
2017-09-22T09:30:36.741Z,1002.48
2017-09-22T09:31:46.781Z,1002.46
2017-09-22T09:32:57.114Z,1002.45
2017-09-22T09:34:07.196Z,1002.43
2017-09-22T09:35:17.242Z,1002.45
2017-09-22T09:36:27.582Z,1002.44
2017-09-22T09:37:37.926Z,1002.4
2017-09-22T09:38:53.017Z,1002.4
2017-09-22T09:40:03.049Z,1002.42
2017-09-22T09:41:13.407Z,1002.44
2017-09-22T09:42:23.124Z,1002.49
2017-09-22T09:43:33.503Z,1002.46
2017-09-22T09:44:43.509Z,1002.46
2017-09-22T09:45:56.144Z,1002.42
2017-09-22T09:47:07.921Z,1002.45
2017-09-22T09:48:18.262Z,1002.39
2017-09-22T09:49:28.611Z,1002.43
2017-09-22T09:50:38.955Z,1002.52
2017-09-22T09:51:49.307Z,1002.41
2017-09-22T09:52:59.333Z,1002.4
2017-09-22T09:54:09.674Z,1002.42
2017-09-22T09:55:21.468Z,1002.3
2017-09-22T09:56:31.809Z,1002.28
2017-09-22T09:57:42.088Z,1002.32
2017-09-22T09:58:52.444Z,1002.4
2017-09-22T10:00:02.468Z,1002.39
2017-09-22T10:01:12.815Z,1002.33
2017-09-22T10:02:22.844Z,1002.35
2017-09-22T10:03:32.879Z,1002.4
2017-09-22T10:04:44.471Z,1002.38
2017-09-22T10:05:54.495Z,1002.37
2017-09-22T10:07:04.841Z,1002.37
2017-09-22T10:08:15.188Z,1002.43
2017-09-22T10:09:25.244Z,1002.4
2017-09-22T10:10:35.590Z,1002.46
2017-09-22T10:11:45.947Z,1002.36
2017-09-22T10:12:56.293Z,1002.41
2017-09-22T10:14:06.635Z,1002.39
2017-09-22T10:15:16.971Z,1002.43
2017-09-22T10:16:27.320Z,1002.42
2017-09-22T10:17:37.656Z,1002.39
2017-09-22T10:18:48.007Z,1002.44
2017-09-22T10:19:58.406Z,1002.37
2017-09-22T10:21:08.751Z,1002.42
2017-09-22T10:22:19.094Z,1002.42
2017-09-22T10:23:29.439Z,1002.48
2017-09-22T10:24:39.785Z,1002.47
2017-09-22T10:25:50.204Z,1002.42
2017-09-22T10:27:00.540Z,1002.46
2017-09-22T10:28:10.896Z,1002.47
2017-09-22T10:29:20.613Z,1002.5
2017-09-22T10:30:30.951Z,1002.47
2017-09-22T10:31:40.992Z,1002.51
2017-09-22T10:32:51.337Z,1002.53
2017-09-22T10:34:01.696Z,1002.49
2017-09-22T10:35:12.100Z,1002.5
2017-09-22T10:36:22.180Z,1002.48
2017-09-22T10:37:32.221Z,1002.5
2017-09-22T10:38:42.263Z,1002.51
2017-09-22T10:39:52.609Z,1002.44
2017-09-22T10:41:03.004Z,1002.45
2017-09-22T10:42:14.542Z,1002.47
2017-09-22T10:43:24.891Z,1002.51
2017-09-22T10:44:35.277Z,1002.45
2017-09-22T10:45:45.632Z,1002.46
2017-09-22T10:46:55.462Z,1002.47
2017-09-22T10:48:05.936Z,1002.44
2017-09-22T10:49:18.607Z,1002.36
2017-09-22T10:50:28.957Z,1002.33
2017-09-22T10:51:39.297Z,1002.42
2017-09-22T10:52:49.383Z,1002.38
2017-09-22T10:53:59.717Z,1002.39
2017-09-22T10:55:09.758Z,1002.41
2017-09-22T10:56:19.781Z,1002.43
2017-09-22T10:57:29.816Z,1002.42
2017-09-22T10:58:40.237Z,1002.43
2017-09-22T10:59:50.566Z,1002.43
2017-09-22T11:01:00.611Z,1002.51
2017-09-22T11:02:10.948Z,1002.48
2017-09-22T11:03:20.982Z,1002.47
2017-09-22T11:04:31.330Z,1002.51
2017-09-22T11:05:41.364Z,1002.53
2017-09-22T11:06:53.591Z,1002.52
2017-09-22T11:08:03.971Z,1002.45
2017-09-22T11:09:14.308Z,1002.49
2017-09-22T11:10:24.340Z,1002.47
2017-09-22T11:11:34.693Z,1002.48
2017-09-22T11:12:44.715Z,1002.53
2017-09-22T11:13:54.740Z,1002.5
2017-09-22T11:15:04.457Z,1002.49
2017-09-22T11:16:14.797Z,1002.52
2017-09-22T11:17:24.840Z,1002.61
2017-09-22T11:18:35.181Z,1002.6
2017-09-22T11:19:44.877Z,1002.55
2017-09-22T11:20:55.215Z,1002.5
2017-09-22T11:22:05.609Z,1002.53
2017-09-22T11:23:15.656Z,1002.56
2017-09-22T11:24:25.365Z,1002.57
2017-09-22T11:25:35.388Z,1002.57
2017-09-22T11:26:45.100Z,1002.58
2017-09-22T11:27:55.502Z,1002.55
2017-09-22T11:29:05.531Z,1002.59
2017-09-22T11:30:15.875Z,1002.55
2017-09-22T11:31:26.221Z,1002.57
2017-09-22T11:32:36.570Z,1002.6
2017-09-22T11:33:46.962Z,1002.59
2017-09-22T11:34:57.289Z,1002.58
2017-09-22T11:36:07.645Z,1002.56
2017-09-22T11:37:17.977Z,1002.59
2017-09-22T11:38:28.323Z,1002.57
2017-09-22T11:39:38.350Z,1002.55
2017-09-22T11:40:48.701Z,1002.54
2017-09-22T11:41:59.064Z,1002.54
2017-09-22T11:43:09.103Z,1002.56
2017-09-22T11:44:18.817Z,1002.59
2017-09-22T11:45:29.213Z,1002.62
2017-09-22T11:46:39.559Z,1002.61
2017-09-22T11:47:49.903Z,1002.6
2017-09-22T11:48:59.932Z,1002.58
2017-09-22T11:50:09.985Z,1002.63
2017-09-22T11:51:20.403Z,1002.64
2017-09-22T11:52:30.767Z,1002.65
2017-09-22T11:53:40.771Z,1002.64
2017-09-22T11:54:50.787Z,1002.61
2017-09-22T11:56:01.124Z,1002.57
2017-09-22T11:57:11.531Z,1002.58
2017-09-22T11:58:21.874Z,1002.58
2017-09-22T11:59:32.210Z,1002.52
2017-09-22T12:00:42.239Z,1002.55
2017-09-22T12:01:52.278Z,1002.53
2017-09-22T12:03:05.234Z,1002.5
2017-09-22T12:04:15.584Z,1002.55
2017-09-22T12:05:25.941Z,1002.55
2017-09-22T12:06:36.289Z,1002.55
2017-09-22T12:07:46.012Z,1002.51
2017-09-22T12:08:56.354Z,1002.59
2017-09-22T12:10:06.370Z,1002.57
2017-09-22T12:11:16.393Z,1002.57
2017-09-22T12:12:26.725Z,1002.55
2017-09-22T12:13:36.745Z,1002.61
2017-09-22T12:14:47.082Z,1002.6
2017-09-22T12:15:57.099Z,1002.59
2017-09-22T12:17:07.120Z,1002.58
2017-09-22T12:18:17.452Z,1002.58
2017-09-22T12:19:27.488Z,1002.56
2017-09-22T12:20:40.041Z,1002.6
2017-09-22T12:21:50.072Z,1002.61
2017-09-22T12:23:00.419Z,1002.63
2017-09-22T12:24:10.774Z,1002.65
2017-09-22T12:25:21.139Z,1002.66
2017-09-22T12:26:31.550Z,1002.61
2017-09-22T12:27:41.264Z,1002.62
2017-09-22T12:28:51.640Z,1002.63
2017-09-22T12:30:01.976Z,1002.6
2017-09-22T12:31:12.321Z,1002.62
2017-09-22T12:32:22.669Z,1002.61
2017-09-22T12:33:32.681Z,1002.62
2017-09-22T12:34:43.029Z,1002.61
2017-09-22T12:35:53.366Z,1002.61
2017-09-22T12:37:03.413Z,1002.58
2017-09-22T12:38:13.752Z,1002.61
2017-09-22T12:39:24.117Z,1002.59
2017-09-22T12:40:34.466Z,1002.56
2017-09-22T12:41:44.802Z,1002.57
2017-09-22T12:42:55.134Z,1002.57
2017-09-22T12:44:05.533Z,1002.57
2017-09-22T12:45:15.902Z,1002.56
2017-09-22T12:46:26.260Z,1002.58
2017-09-22T12:53:14.757Z,1002.66
2017-09-22T12:55:22.761Z,1002.68
2017-09-22T12:56:35.063Z,1002.64
2017-09-22T12:57:45.412Z,1002.6
2017-09-22T12:58:57.828Z,1002.6
2017-09-22T13:00:08.200Z,1002.63
2017-09-22T13:01:18.548Z,1002.61
2017-09-22T13:02:29.181Z,1002.69
2017-09-22T13:03:39.226Z,1002.65
2017-09-22T13:04:49.628Z,1002.7
2017-09-22T13:05:59.974Z,1002.66
2017-09-22T13:07:10.340Z,1002.65
2017-09-22T13:08:20.697Z,1002.67
2017-09-22T13:09:31.051Z,1002.68
2017-09-22T13:10:42.666Z,1002.69
2017-09-22T13:11:52.695Z,1002.71
2017-09-22T13:13:03.043Z,1002.7
2017-09-22T13:14:13.072Z,1002.69
2017-09-22T13:15:23.114Z,1002.71
2017-09-22T13:16:33.447Z,1002.72
2017-09-22T13:17:43.491Z,1002.7
2017-09-22T13:18:53.550Z,1002.68
2017-09-22T13:20:03.893Z,1002.69
2017-09-22T13:21:13.916Z,1002.68
2017-09-22T13:22:23.944Z,1002.65
2017-09-22T13:23:33.975Z,1002.68
2017-09-22T13:24:44.342Z,1002.61
2017-09-22T13:25:54.700Z,1002.69
2017-09-22T13:27:04.731Z,1002.68
2017-09-22T13:28:15.080Z,1002.68
2017-09-22T13:29:24.796Z,1002.64
2017-09-22T13:30:35.133Z,1002.58
2017-09-22T13:31:45.473Z,1002.62
2017-09-22T13:32:55.828Z,1002.64
2017-09-22T13:34:06.221Z,1002.62
2017-09-22T13:35:16.253Z,1002.62
2017-09-22T13:36:26.616Z,1002.68
2017-09-22T13:37:36.985Z,1002.64
2017-09-22T13:38:47.319Z,1002.64
2017-09-22T13:39:57.090Z,1002.64
2017-09-22T13:41:07.123Z,1002.65
2017-09-22T13:42:17.522Z,1002.64
2017-09-22T13:43:27.893Z,1002.63
2017-09-22T13:44:37.929Z,1002.65
2017-09-22T13:45:48.006Z,1002.62
2017-09-22T13:46:58.362Z,1002.62
2017-09-22T13:48:08.423Z,1002.64
2017-09-22T13:49:18.764Z,1002.6
2017-09-22T13:50:29.131Z,1002.59
2017-09-22T13:51:39.173Z,1002.61
2017-09-22T13:52:49.611Z,1002.67
2017-09-22T13:53:59.655Z,1002.63
2017-09-22T13:55:09.996Z,1002.61
2017-09-22T13:56:20.345Z,1002.6
2017-09-22T13:57:30.761Z,1002.62
2017-09-22T13:58:40.807Z,1002.6
2017-09-22T13:59:51.157Z,1002.58
2017-09-22T14:01:00.873Z,1002.63
2017-09-22T14:02:11.231Z,1002.57
2017-09-22T14:03:21.598Z,1002.63
2017-09-22T14:04:31.944Z,1002.59
2017-09-22T14:05:42.291Z,1002.62
2017-09-22T14:06:52.311Z,1002.61
2017-09-22T14:08:02.356Z,1002.58
2017-09-22T14:09:12.429Z,1002.59
2017-09-22T14:10:22.776Z,1002.62
2017-09-22T14:11:33.146Z,1002.57
2017-09-22T14:12:43.499Z,1002.56
2017-09-22T14:13:56.207Z,1002.55
2017-09-22T14:15:06.573Z,1002.54
2017-09-22T14:16:16.930Z,1002.6
2017-09-22T14:17:26.970Z,1002.53
2017-09-22T14:18:36.992Z,1002.55
2017-09-22T14:19:47.333Z,1002.52
2017-09-22T14:20:57.699Z,1002.54
2017-09-22T14:22:08.040Z,1002.54
2017-09-22T14:23:18.440Z,1002.47
2017-09-22T14:24:28.789Z,1002.48
2017-09-22T14:25:40.907Z,1002.53
2017-09-22T14:26:51.261Z,1002.48
2017-09-22T14:28:01.303Z,1002.5
2017-09-22T14:29:11.646Z,1002.47
2017-09-22T14:30:21.677Z,1002.49
2017-09-22T14:31:32.035Z,1002.43
2017-09-22T14:32:42.061Z,1002.41
2017-09-22T14:33:52.440Z,1002.35
2017-09-22T14:35:02.456Z,1002.44
2017-09-22T14:36:12.795Z,1002.42
2017-09-22T14:37:23.144Z,1002.39
2017-09-22T14:38:33.482Z,1002.44
2017-09-22T14:39:43.821Z,1002.45
2017-09-22T14:40:54.181Z,1002.47
2017-09-22T14:42:04.515Z,1002.42
2017-09-22T14:43:14.875Z,1002.43
2017-09-22T14:44:24.897Z,1002.41
2017-09-22T14:45:34.928Z,1002.42
2017-09-22T14:46:45.018Z,1002.37
2017-09-22T14:47:54.736Z,1002.43
2017-09-22T14:49:05.088Z,1002.44
2017-09-22T14:50:15.438Z,1002.41
2017-09-22T14:51:27.093Z,1002.42